Station History


Daily Summary for January 2, 2012 Units:  English    Metric   Both
« Previous Day
Next Day »
Daily Weekly Monthly Yearly Custom
  High: Low: Average:
Temperature: 75.6 °F 33.0 °F 50.9 °F
Dew Point: 44.0 °F 30.8 °F 36.8 °F
Humidity: 93% 21% 65%
Wind Speed: 7.0mph 0.0mph 2.2mph
Wind Gust: 7.0mph - -
Wind- - SW
Pressure: 30.30 in 30.15 in -
Precipitation: 0.00 in    
Historical Graphs
 
 
Tabular Data for January 2, 2012
Time Temperature Dew Point Pressure Wind Wind Speed Wind Gust Humidity Rainfall Rate (Hourly)
00:01 38.5 °F 35.8 °F 30.19 in Calm     90% 0.00 in
00:06 38.5 °F 35.8 °F 30.19 in Calm     90% 0.00 in
00:11 38.5 °F 35.5 °F 30.19 in Calm     89% 0.00 in
00:16 38.4 °F 35.4 °F 30.19 in Calm     89% 0.00 in
00:21 38.1 °F 34.9 °F 30.19 in Calm     88% 0.00 in
00:26 37.9 °F 34.9 °F 30.19 in Calm     89% 0.00 in
00:31 37.9 °F 35.2 °F 30.19 in Calm     90% 0.00 in
00:36 37.7 °F 34.8 °F 30.19 in Calm     89% 0.00 in
00:41 37.5 °F 34.8 °F 30.19 in Calm     90% 0.00 in
00:46 37.5 °F 34.8 °F 30.19 in Calm     90% 0.00 in
00:51 37.3 °F 34.6 °F 30.19 in Calm     90% 0.00 in
00:56 37.1 °F 34.4 °F 30.19 in Calm     90% 0.00 in
01:01 36.9 °F 34.2 °F 30.19 in Calm     90% 0.00 in
01:06 36.8 °F 34.1 °F 30.19 in Calm     90% 0.00 in
01:11 36.6 °F 33.9 °F 30.19 in Calm     90% 0.00 in
01:16 36.5 °F 34.1 °F 30.19 in Calm     91% 0.00 in
01:21 36.5 °F 34.1 °F 30.19 in Calm     91% 0.00 in
01:26 36.6 °F 34.5 °F 30.19 in Calm     92% 0.00 in
01:31 36.5 °F 34.1 °F 30.19 in Calm     91% 0.00 in
01:36 36.4 °F 34.0 °F 30.19 in Calm     91% 0.00 in
01:41 36.2 °F 33.8 °F 30.19 in Calm     91% 0.00 in
01:46 36.1 °F 33.7 °F 30.19 in Calm     91% 0.00 in
01:51 36.1 °F 33.7 °F 30.19 in Calm     91% 0.00 in
01:56 35.9 °F 33.5 °F 30.19 in Calm     91% 0.00 in
02:01 35.8 °F 33.7 °F 30.19 in Calm     92% 0.00 in
02:06 35.9 °F 33.8 °F 30.19 in Calm     92% 0.00 in
02:11 35.9 °F 33.8 °F 30.19 in Calm     92% 0.00 in
02:16 35.9 °F 33.8 °F 30.19 in Calm     92% 0.00 in
02:21 36.0 °F 33.9 °F 30.19 in Calm     92% 0.00 in
02:26 36.0 °F 33.9 °F 30.19 in Calm     92% 0.00 in
02:31 35.9 °F 33.5 °F 30.19 in Calm     91% 0.00 in
02:36 35.7 °F 33.3 °F 30.19 in Calm     91% 0.00 in
02:41 35.7 °F 33.3 °F 30.19 in Calm     91% 0.00 in
02:46 35.6 °F 33.2 °F 30.19 in Calm     91% 0.00 in
02:51 35.4 °F 33.0 °F 30.19 in Calm     91% 0.00 in
02:56 35.3 °F 32.9 °F 30.19 in Calm     91% 0.00 in
03:01 35.6 °F 33.5 °F 30.19 in Calm     92% 0.00 in
03:06 35.7 °F 33.3 °F 30.19 in Calm     91% 0.00 in
03:11 35.7 °F 33.3 °F 30.19 in Calm     91% 0.00 in
03:16 35.6 °F 33.2 °F 30.19 in Calm     91% 0.00 in
03:21 35.5 °F 33.1 °F 30.19 in Calm     91% 0.00 in
03:26 35.3 °F 32.7 °F 30.19 in Calm     90% 0.00 in
03:31 35.1 °F 32.7 °F 30.19 in Calm     91% 0.00 in
03:36 35.1 °F 32.7 °F 30.19 in Calm     91% 0.00 in
03:41 35.1 °F 32.7 °F 30.19 in Calm     91% 0.00 in
03:46 35.1 °F 32.7 °F 30.19 in Calm     91% 0.00 in
03:51 34.9 °F 32.5 °F 30.19 in Calm     91% 0.00 in
03:56 34.9 °F 32.5 °F 30.19 in Calm     91% 0.00 in
04:01 35.0 °F 32.6 °F 30.19 in Calm     91% 0.00 in
04:06 35.3 °F 32.9 °F 30.19 in Calm     91% 0.00 in
04:11 35.3 °F 32.7 °F 30.19 in Calm     90% 0.00 in
04:16 35.0 °F 32.1 °F 30.19 in Calm     89% 0.00 in
04:21 34.8 °F 31.9 °F 30.19 in Calm     89% 0.00 in
04:26 34.5 °F 31.6 °F 30.19 in Calm     89% 0.00 in
04:31 34.3 °F 31.7 °F 30.19 in Calm     90% 0.00 in
04:37 34.1 °F 31.5 °F 30.19 in Calm     90% 0.00 in
04:42 33.9 °F 31.6 °F 30.19 in Calm     91% 0.00 in
04:47 33.8 °F 31.5 °F 30.19 in Calm     91% 0.00 in
04:52 33.7 °F 31.4 °F 30.19 in Calm     91% 0.00 in
04:57 33.6 °F 31.3 °F 30.19 in Calm     91% 0.00 in
05:02 33.4 °F 31.1 °F 30.19 in Calm     91% 0.00 in
05:07 33.5 °F 31.4 °F 30.20 in Calm     92% 0.00 in
05:12 33.6 °F 31.5 °F 30.20 in Calm     92% 0.00 in
05:17 33.7 °F 31.6 °F 30.20 in Calm     92% 0.00 in
05:22 33.5 °F 31.2 °F 30.20 in Calm     91% 0.00 in
05:27 33.3 °F 31.0 °F 30.21 in Calm     91% 0.00 in
05:32 33.2 °F 31.1 °F 30.21 in Calm     92% 0.00 in
05:37 33.2 °F 31.1 °F 30.21 in Calm     92% 0.00 in
05:42 33.1 °F 30.8 °F 30.21 in Calm     91% 0.00 in
05:47 33.0 °F 30.9 °F 30.21 in Calm     92% 0.00 in
05:52 33.1 °F 31.0 °F 30.21 in Calm     92% 0.00 in
05:57 33.3 °F 31.2 °F 30.22 in Calm     92% 0.00 in
06:02 33.3 °F 31.2 °F 30.21 in Calm     92% 0.00 in
06:07 33.2 °F 31.1 °F 30.21 in Calm     92% 0.00 in
06:12 33.2 °F 31.1 °F 30.21 in Calm     92% 0.00 in
06:17 33.2 °F 31.1 °F 30.21 in Calm     92% 0.00 in
06:22 33.2 °F 31.1 °F 30.21 in Calm     92% 0.00 in
06:27 33.3 °F 31.2 °F 30.21 in Calm     92% 0.00 in
06:32 33.6 °F 31.8 °F 30.22 in Calm     93% 0.00 in
06:37 34.2 °F 31.8 °F 30.21 in Calm     91% 0.00 in
06:42 34.3 °F 31.7 °F 30.22 in Calm     90% 0.00 in
06:47 34.1 °F 31.5 °F 30.22 in Calm     90% 0.00 in
06:52 33.9 °F 31.0 °F 30.23 in Calm     89% 0.00 in
06:57 33.7 °F 30.8 °F 30.23 in Calm     89% 0.00 in
07:02 33.6 °F 31.0 °F 30.23 in Calm     90% 0.00 in
07:07 33.5 °F 30.9 °F 30.23 in Calm     90% 0.00 in
07:12 34.1 °F 31.5 °F 30.23 in Calm     90% 0.00 in
07:17 34.5 °F 31.6 °F 30.24 in Calm     89% 0.00 in
07:22 34.5 °F 31.3 °F 30.24 in Calm     88% 0.00 in
07:27 34.6 °F 31.4 °F 30.25 in Calm     88% 0.00 in
07:32 35.0 °F 31.8 °F 30.25 in Calm     88% 0.00 in
07:37 35.4 °F 31.9 °F 30.25 in Calm     87% 0.00 in
07:42 35.9 °F 32.4 °F 30.25 in Calm     87% 0.00 in
07:47 36.1 °F 32.6 °F 30.25 in ENE 1.2 mph 1.2 mph 87% 0.00 in
07:52 36.6 °F 32.8 °F 30.25 in Calm     86% 0.00 in
07:57 36.8 °F 33.0 °F 30.25 in Calm     86% 0.00 in
08:02 37.4 °F 33.6 °F 30.25 in Calm     86% 0.00 in
08:07 37.9 °F 33.8 °F 30.25 in Calm     85% 0.00 in
08:12 38.5 °F 34.1 °F 30.25 in Calm     84% 0.00 in
08:17 39.0 °F 34.6 °F 30.25 in Calm     84% 0.00 in
08:22 39.6 °F 34.6 °F 30.25 in Calm     82% 0.00 in
08:27 40.2 °F 35.4 °F 30.25 in Calm     83% 0.00 in
08:32 40.8 °F 35.4 °F 30.25 in Calm     81% 0.00 in
08:37 41.9 °F 36.2 °F 30.25 in Calm     80% 0.00 in
08:42 42.4 °F 36.0 °F 30.26 in Calm     78% 0.00 in
08:47 43.0 °F 36.6 °F 30.26 in Calm     78% 0.00 in
08:52 44.0 °F 36.2 °F 30.26 in Calm     74% 0.00 in
08:57 44.9 °F 36.1 °F 30.27 in Calm     71% 0.00 in
09:02 45.8 °F 35.8 °F 30.27 in Calm     68% 0.00 in
09:07 47.0 °F 36.2 °F 30.27 in Calm     66% 0.00 in
09:12 48.1 °F 36.5 °F 30.28 in Calm     64% 0.00 in
09:17 49.0 °F 37.3 °F 30.28 in Calm     64% 0.00 in
09:22 49.5 °F 37.4 °F 30.28 in Calm     63% 0.00 in
09:27 50.1 °F 38.4 °F 30.27 in Calm     64% 0.00 in
09:32 50.5 °F 37.5 °F 30.27 in Calm     61% 0.00 in
09:37 50.8 °F 37.4 °F 30.27 in Calm     60% 0.00 in
09:42 51.3 °F 37.4 °F 30.28 in Calm     59% 0.00 in
09:47 52.7 °F 37.0 °F 30.28 in Calm     55% 0.00 in
09:52 53.9 °F 37.1 °F 30.28 in Calm     53% 0.00 in
09:57 54.7 °F 36.9 °F 30.28 in Calm     51% 0.00 in
10:02 55.3 °F 37.0 °F 30.27 in SW 1.2 mph   50% 0.00 in
10:07 56.2 °F 37.3 °F 30.27 in Calm   0.2 mph 49% 0.00 in
10:12 56.8 °F 36.2 °F 30.27 in SW 1.2 mph 1.2 mph 46% 0.00 in
10:17 57.5 °F 35.2 °F 30.27 in WSW 1.2 mph 1.2 mph 43% 0.00 in
10:22 58.4 °F 36.6 °F 30.27 in SSW 1.2 mph 1.2 mph 44% 0.00 in
10:27 59.1 °F 37.2 °F 30.26 in SW 1.2 mph 1.2 mph 44% 0.00 in
10:33 59.9 °F 37.3 °F 30.26 in SW 1.2 mph   43% 0.00 in
10:38 60.3 °F 36.5 °F 30.25 in SW 1.2 mph   41% 0.00 in
10:43 60.8 °F 37.5 °F 30.25 in SW 2.3 mph 2.3 mph 42% 0.00 in
10:48 61.2 °F 37.3 °F 30.25 in Calm   0.1 mph 41% 0.00 in
10:53 61.5 °F 37.6 °F 30.24 in Calm     41% 0.00 in
10:58 61.9 °F 36.7 °F 30.24 in Calm     39% 0.00 in
11:03 62.3 °F 36.4 °F 30.24 in ESE 1.2 mph   38% 0.00 in
11:08 62.8 °F 36.8 °F 30.23 in Calm     38% 0.00 in
11:13 63.3 °F 37.2 °F 30.23 in Calm     38% 0.00 in
11:18 63.7 °F 36.2 °F 30.22 in ESE 1.2 mph 1.2 mph 36% 0.00 in
11:23 64.5 °F 36.9 °F 30.22 in WSW 2.3 mph 2.3 mph 36% 0.00 in
11:28 65.5 °F 37.1 °F 30.22 in Calm     35% 0.00 in
11:33 66.3 °F 36.3 °F 30.21 in Calm     33% 0.00 in
11:38 66.7 °F 35.9 °F 30.21 in Calm     32% 0.00 in
11:44 66.9 °F 35.3 °F 30.20 in Calm     31% 0.00 in
11:48 67.4 °F 35.7 °F 30.20 in SW 1.2 mph   31% 0.00 in
11:54 68.0 °F 34.5 °F 30.20 in Calm   0.1 mph 29% 0.00 in
11:59 68.7 °F 35.1 °F 30.19 in Calm     29% 0.00 in
12:04 69.2 °F 34.7 °F 30.19 in SW 1.2 mph 1.2 mph 28% 0.00 in
12:22 71.6 °F 31.8 °F 30.18 in WNW 1.2 mph 1.2 mph 23% 0.00 in
12:27 72.5 °F 33.6 °F 30.18 in NNE 1.2 mph 1.2 mph 24% 0.00 in
12:32 73.3 °F 34.3 °F 30.18 in WNW 1.2 mph 1.2 mph 24% 0.00 in
12:37 73.9 °F 33.7 °F 30.18 in West 1.2 mph 1.2 mph 23% 0.00 in
12:43 74.4 °F 34.2 °F 30.18 in WSW 1.2 mph   23% 0.00 in
12:48 75.1 °F 32.5 °F 30.18 in East 3.5 mph 3.5 mph 21% 0.00 in
12:53 75.4 °F 32.7 °F 30.18 in NW 3.5 mph 3.5 mph 21% 0.00 in
12:58 75.6 °F 35.2 °F 30.18 in SW 6.9 mph 6.9 mph 23% 0.00 in
13:03 75.0 °F 37.8 °F 30.18 in ESE 5.8 mph 5.8 mph 26% 0.00 in
13:08 74.4 °F 40.9 °F 30.18 in SE 5.8 mph 5.8 mph 30% 0.00 in
13:13 73.9 °F 41.3 °F 30.18 in North 7.0 mph 7.0 mph 31% 0.00 in
13:18 73.3 °F 38.2 °F 30.18 in North 6.9 mph 6.9 mph 28% 0.00 in
13:23 73.3 °F 36.3 °F 30.18 in NNE 4.0 mph 4.0 mph 26% 0.00 in
13:28 73.2 °F 36.2 °F 30.17 in NE 4.0 mph 4.0 mph 26% 0.00 in
13:33 73.3 °F 35.3 °F 30.17 in NNE 3.5 mph 3.5 mph 25% 0.00 in
13:38 73.5 °F 34.5 °F 30.18 in NNE 5.0 mph 5.0 mph 24% 0.00 in
13:43 73.8 °F 34.7 °F 30.18 in NE 4.6 mph 4.6 mph 24% 0.00 in
13:48 73.6 °F 34.6 °F 30.18 in WNW 4.6 mph 4.6 mph 24% 0.00 in
13:53 73.4 °F 35.4 °F 30.18 in WNW 5.8 mph 5.8 mph 25% 0.00 in
13:58 73.0 °F 36.1 °F 30.18 in SSW 3.5 mph 3.5 mph 26% 0.00 in
14:03 73.1 °F 36.2 °F 30.18 in NW 3.5 mph 3.5 mph 26% 0.00 in
14:08 73.1 °F 38.0 °F 30.17 in North 1.2 mph 1.2 mph 28% 0.00 in
14:13 73.3 °F 39.1 °F 30.17 in NW 3.0 mph 3.0 mph 29% 0.00 in
14:18 73.0 °F 38.9 °F 30.17 in NE 2.3 mph 2.3 mph 29% 0.00 in
14:23 72.6 °F 40.2 °F 30.17 in NW 2.3 mph   31% 0.00 in
14:28 72.1 °F 39.8 °F 30.17 in NW 1.2 mph   31% 0.00 in
14:34 72.0 °F 41.3 °F 30.16 in NW 1.2 mph 1.2 mph 33% 0.00 in
14:39 72.3 °F 40.8 °F 30.16 in Calm     32% 0.00 in
14:44 73.1 °F 38.9 °F 30.16 in NW 1.2 mph 1.2 mph 29% 0.00 in
14:49 73.9 °F 39.6 °F 30.16 in NW 2.3 mph 2.3 mph 29% 0.00 in
14:54 74.1 °F 39.8 °F 30.16 in Calm   0.2 mph 29% 0.00 in
14:59 74.0 °F 38.8 °F 30.16 in West 1.2 mph 1.2 mph 28% 0.00 in
15:04 74.1 °F 38.9 °F 30.16 in NNW 2.3 mph 2.3 mph 28% 0.00 in
15:09 73.9 °F 38.7 °F 30.16 in WSW 1.2 mph 1.2 mph 28% 0.00 in
15:14 73.3 °F 38.2 °F 30.16 in NW 1.2 mph   28% 0.00 in
15:19 73.1 °F 38.9 °F 30.16 in Calm     29% 0.00 in
15:24 72.7 °F 36.8 °F 30.16 in NW 3.5 mph 3.5 mph 27% 0.00 in
15:29 71.9 °F 37.0 °F 30.16 in NW 1.2 mph 1.2 mph 28% 0.00 in
15:34 71.4 °F 36.6 °F 30.16 in NNW 1.2 mph 1.2 mph 28% 0.00 in
15:39 70.9 °F 36.1 °F 30.16 in NW 1.2 mph 1.2 mph 28% 0.00 in
15:44 70.3 °F 34.7 °F 30.16 in NNW 1.2 mph 1.2 mph 27% 0.00 in
15:49 69.9 °F 35.3 °F 30.16 in North 1.2 mph 1.2 mph 28% 0.00 in
15:54 69.3 °F 34.8 °F 30.16 in NNW 1.2 mph   28% 0.00 in
15:59 68.8 °F 35.2 °F 30.16 in NNW 1.2 mph 1.2 mph 29% 0.00 in
16:04 68.4 °F 35.7 °F 30.16 in NW 2.3 mph 2.3 mph 30% 0.00 in
16:09 68.0 °F 36.2 °F 30.16 in Calm     31% 0.00 in
16:14 67.5 °F 35.8 °F 30.16 in Calm     31% 0.00 in
16:19 67.2 °F 36.3 °F 30.16 in Calm     32% 0.00 in
16:24 66.9 °F 36.1 °F 30.16 in Calm     32% 0.00 in
16:29 66.5 °F 36.5 °F 30.16 in Calm     33% 0.00 in
16:34 65.9 °F 36.7 °F 30.16 in Calm     34% 0.00 in
16:39 65.5 °F 37.1 °F 30.16 in Calm     35% 0.00 in
16:44 65.3 °F 36.9 °F 30.15 in ENE 1.2 mph 1.2 mph 35% 0.00 in
16:49 65.0 °F 36.7 °F 30.16 in Calm     35% 0.00 in
16:54 64.6 °F 37.7 °F 30.16 in WNW 1.0 mph 1.0 mph 37% 0.00 in
16:59 63.9 °F 37.8 °F 30.17 in West 1.2 mph   38% 0.00 in
17:04 63.5 °F 37.4 °F 30.16 in Calm     38% 0.00 in
17:09 63.2 °F 37.8 °F 30.16 in Calm     39% 0.00 in
17:14 62.7 °F 38.6 °F 30.17 in Calm     41% 0.00 in
17:19 62.1 °F 38.7 °F 30.17 in West 1.2 mph   42% 0.00 in
17:24 61.8 °F 38.4 °F 30.17 in Calm     42% 0.00 in
17:29 61.4 °F 38.1 °F 30.17 in Calm     42% 0.00 in
17:34 61.1 °F 38.4 °F 30.18 in NNW 3.0 mph 3.0 mph 43% 0.00 in
17:39 61.1 °F 41.2 °F 30.18 in WNW 1.2 mph 1.2 mph 48% 0.00 in
17:44 60.8 °F 42.0 °F 30.19 in West 2.3 mph 2.3 mph 50% 0.00 in
17:49 60.2 °F 43.5 °F 30.19 in SSW 3.5 mph 3.5 mph 54% 0.00 in
17:54 59.7 °F 44.0 °F 30.19 in West 3.5 mph 3.5 mph 56% 0.00 in
17:59 59.3 °F 43.6 °F 30.18 in NNW 1.2 mph   56% 0.00 in
18:04 59.0 °F 43.8 °F 30.19 in NNW 1.2 mph   57% 0.00 in
18:09 58.6 °F 43.4 °F 30.19 in Calm     57% 0.00 in
18:14 58.2 °F 43.0 °F 30.19 in Calm     57% 0.00 in
18:19 57.8 °F 43.1 °F 30.19 in Calm     58% 0.00 in
18:24 57.6 °F 42.9 °F 30.19 in ENE 1.0 mph 1.0 mph 58% 0.00 in
18:29 57.5 °F 43.3 °F 30.19 in East 1.2 mph 1.2 mph 59% 0.00 in
18:35 57.3 °F 43.1 °F 30.20 in Calm     59% 0.00 in
18:40 57.1 °F 43.3 °F 30.20 in Calm   0.1 mph 60% 0.00 in
18:45 57.0 °F 43.2 °F 30.20 in Calm     60% 0.00 in
18:50 56.7 °F 43.0 °F 30.20 in Calm     60% 0.00 in
18:55 56.5 °F 43.2 °F 30.21 in Calm     61% 0.00 in
19:00 56.3 °F 43.4 °F 30.21 in Calm     62% 0.00 in
19:05 56.1 °F 43.3 °F 30.22 in Calm     62% 0.00 in
19:10 55.9 °F 43.5 °F 30.22 in Calm     63% 0.00 in
19:15 55.8 °F 43.4 °F 30.22 in Calm     63% 0.00 in
19:20 55.8 °F 43.4 °F 30.22 in North 1.2 mph   63% 0.00 in
19:25 55.8 °F 43.0 °F 30.22 in North 1.2 mph 1.2 mph 62% 0.00 in
19:30 55.7 °F 42.9 °F 30.22 in North 2.3 mph 2.3 mph 62% 0.00 in
19:35 55.6 °F 42.8 °F 30.22 in North 1.2 mph 1.2 mph 62% 0.00 in
19:40 55.5 °F 42.7 °F 30.23 in NNW 1.2 mph   62% 0.00 in
19:45 55.5 °F 42.7 °F 30.22 in Calm     62% 0.00 in
19:50 55.3 °F 42.5 °F 30.23 in ENE 1.0 mph 1.0 mph 62% 0.00 in
19:55 55.5 °F 42.3 °F 30.23 in East 1.2 mph 1.2 mph 61% 0.00 in
20:00 55.5 °F 42.3 °F 30.23 in Calm     61% 0.00 in
20:05 55.3 °F 42.1 °F 30.23 in Calm     61% 0.00 in
20:10 54.9 °F 41.7 °F 30.23 in Calm     61% 0.00 in
20:15 54.4 °F 41.6 °F 30.23 in Calm     62% 0.00 in
20:20 53.9 °F 41.6 °F 30.22 in Calm     63% 0.00 in
20:25 53.5 °F 41.2 °F 30.22 in Calm     63% 0.00 in
20:30 53.2 °F 41.3 °F 30.23 in Calm     64% 0.00 in
20:36 52.9 °F 41.0 °F 30.23 in Calm     64% 0.00 in
20:41 52.5 °F 41.1 °F 30.23 in Calm     65% 0.00 in
20:46 52.0 °F 41.0 °F 30.23 in Calm     66% 0.00 in
20:51 51.6 °F 41.0 °F 30.23 in Calm     67% 0.00 in
20:56 51.2 °F 40.6 °F 30.23 in Calm     67% 0.00 in
21:00 51.4 °F 41.6 °F 30.24 in South 1.2 mph 1.2 mph 69% 0.00 in
21:02 51.8 °F 41.6 °F 30.24 in Calm     68% 0.00 in
21:07 52.2 °F 42.0 °F 30.24 in SSW 2.3 mph 2.3 mph 68% 0.00 in
21:12 52.3 °F 42.0 °F 30.25 in South 3.5 mph 3.5 mph 68% 0.00 in
21:17 52.1 °F 41.9 °F 30.25 in SSW 1.2 mph 1.2 mph 68% 0.00 in
21:22 51.8 °F 41.9 °F 30.25 in Calm     69% 0.00 in
21:27 51.5 °F 42.0 °F 30.25 in Calm     70% 0.00 in
21:32 51.2 °F 42.1 °F 30.25 in SW 1.2 mph 1.2 mph 71% 0.00 in
21:37 51.0 °F 42.3 °F 30.25 in Calm     72% 0.00 in
21:42 50.8 °F 42.5 °F 30.26 in Calm     73% 0.00 in
21:47 50.5 °F 42.2 °F 30.26 in Calm     73% 0.00 in
21:52 50.1 °F 42.1 °F 30.27 in Calm     74% 0.00 in
21:57 50.0 °F 42.4 °F 30.27 in Calm     75% 0.00 in
22:02 49.7 °F 42.1 °F 30.28 in Calm     75% 0.00 in
22:07 49.6 °F 42.3 °F 30.28 in Calm     76% 0.00 in
22:12 49.5 °F 42.6 °F 30.28 in Calm     77% 0.00 in
22:17 49.3 °F 42.7 °F 30.28 in Calm     78% 0.00 in
22:22 49.0 °F 42.4 °F 30.28 in Calm     78% 0.00 in
22:27 48.8 °F 42.2 °F 30.29 in Calm     78% 0.00 in
22:32 48.7 °F 42.8 °F 30.29 in Calm     80% 0.00 in
22:37 48.4 °F 42.2 °F 30.30 in Calm     79% 0.00 in
22:42 48.0 °F 42.1 °F 30.29 in Calm     80% 0.00 in
22:47 47.5 °F 42.0 °F 30.30 in Calm     81% 0.00 in
22:52 47.0 °F 41.5 °F 30.29 in Calm     81% 0.00 in
22:57 46.5 °F 41.3 °F 30.30 in Calm     82% 0.00 in
23:02 46.1 °F 41.2 °F 30.30 in Calm     83% 0.00 in
23:07 45.7 °F 40.8 °F 30.29 in Calm     83% 0.00 in
23:12 45.1 °F 40.6 °F 30.29 in Calm     84% 0.00 in
23:17 44.7 °F 40.2 °F 30.30 in Calm     84% 0.00 in
23:22 44.3 °F 40.1 °F 30.30 in Calm     85% 0.00 in
23:27 44.2 °F 40.6 °F 30.29 in Calm     87% 0.00 in
23:32 44.1 °F 40.8 °F 30.30 in Calm     88% 0.00 in
23:37 44.1 °F 41.1 °F 30.30 in Calm     89% 0.00 in
23:42 44.3 °F 41.0 °F 30.30 in Calm     88% 0.00 in
23:47 44.5 °F 41.2 °F 30.30 in Calm     88% 0.00 in
23:52 44.6 °F 41.3 °F 30.30 in Calm     88% 0.00 in
23:57 44.7 °F 41.4 °F 30.30 in Calm     88% 0.00 in
Compliments of Weather Underground